METAR Data
IDs: Format: Raw Decoded Include TAF

Data at: 2101 UTC 08 Aug 2020

KOLS 082054Z AUTO VRB05KT 10SM CLR 37/12 A3007 RMK AO2 SLP103 T03720117 56017
KOLS 081954Z AUTO 00000KT 10SM CLR 36/11 A3009 RMK AO2 SLP109 T03560111
KOLS 081854Z AUTO 31004KT 10SM CLR 35/12 A3011 RMK AO2 SLP115 T03500122
KOLS 081754Z AUTO 00000KT 10SM CLR 33/12 A3013 RMK AO2 SLP123 T03330122 10333 20183 58005
KOLS 081654Z AUTO 27004KT 10SM CLR 31/14 A3014 RMK AO2 SLP126 T03110139
KOLS 081554Z AUTO 00000KT 10SM CLR 28/14 A3014 RMK AO2 SLP130 T02830144
KOLS 081454Z AUTO 00000KT 10SM CLR 24/14 A3014 RMK AO2 SLP134 T02440144 53010
KOLS 081354Z AUTO 00000KT 10SM CLR 21/14 A3013 RMK AO2 SLP133 T02110144
KOLS 081254Z AUTO 00000KT 10SM CLR 19/14 A3012 RMK AO2 SLP127 T01890139
KOLS 081154Z AUTO 00000KT 10SM CLR 20/13 A3011 RMK AO2 SLP121 70002 T02000133 10244 20200 53004
KOLS 081054Z AUTO 06004KT 10SM CLR 20/13 A3010 RMK AO2 SLP118 T02000133
KOLS 080954Z AUTO 00000KT 10SM CLR 21/13 A3010 RMK AO2 SLP114 T02110128
KOLS 080854Z AUTO 08004KT 10SM CLR 21/13 A3010 RMK AO2 SLP114 T02110128 58005
KOLS 080754Z AUTO 00000KT 10SM CLR 23/12 A3011 RMK AO2 SLP115 T02330117
KOLS 080654Z AUTO 08007KT 10SM CLR 23/12 A3011 RMK AO2 SLP116 T02330117 403610194
KOLS 080554Z AUTO 00000KT 10SM CLR 24/13 A3011 RMK AO2 SLP121 T02390128 10339 20239 52012
KOLS 080454Z AUTO 10SM CLR 26/12 A3010 RMK AO2 SLP117 T02610122
KOLS 080354Z AUTO 12005KT 10SM CLR 27/13 A3009 RMK AO2 SLP115 T02720128
KOLS 080254Z AUTO 14005KT 10SM CLR 28/13 A3007 RMK AO2 SLP110 T02830128 53012
KOLS 080154Z AUTO 26005KT 10SM CLR 30/13 A3006 RMK AO2 SLP105 T03000128
KOLS 080054Z AUTO 24004KT 10SM CLR 33/10 A3004 RMK AO2 LTG DSNT E SLP098 T03280100
KOLS 072354Z AUTO 22007KT 10SM CLR 34/11 A3003 RMK AO2 SLP095 T03390111 10361 20317 56010
KOLS 072254Z AUTO VRB04KT 10SM SCT120 34/09 A3004 RMK AO2 LTG DSNT SW AND W SLP093 T03440089
KOLS 072154Z AUTO 00000KT 10SM CLR 36/09 A3005 RMK AO2 SLP094 T03560094
KOLS 072054Z AUTO 26004KT 10SM BKN110 35/09 A3007 RMK AO2 SLP101 T03500094 56014
KOLS 071954Z AUTO VRB03KT 10SM FEW120 36/10 A3008 RMK AO2 SLP105 T03560100
KOLS 071854Z AUTO VRB03KT 10SM FEW120 34/11 A3009 RMK AO2 SLP111 T03390106
KOLS 071754Z AUTO VRB03KT 10SM FEW110 32/09 A3011 RMK AO2 SLP116 60002 T03170094 10322 20194 50002
KOLS 071654Z AUTO 34004KT 10SM CLR 28/17 A3012 RMK AO2 RAB12E31 SLP120 P0002 T02830172
KOLS 071624Z AUTO 03007KT 5SM -RA FEW046 FEW075 OVC110 24/18 A3011 RMK AO2 RAB12 P0002 T02440183
KOLS 071614Z AUTO 00000KT 1 3/4SM -RA FEW070 FEW080 OVC100 26/17 A3012 RMK AO2 RAB12 P0002 T02560167
KOLS 071554Z AUTO 00000KT 10SM OVC100 26/16 A3011 RMK AO2 SLP121 T02610156
KOLS 071454Z AUTO 18003KT 10SM SCT110 25/16 A3010 RMK AO2 SLP117 T02500156 51012
KOLS 071354Z AUTO 00000KT 10SM CLR 23/14 A3009 RMK AO2 SLP112 T02280144
KOLS 071254Z AUTO 00000KT 10SM CLR 19/14 A3008 RMK AO2 SLP111 T01940139
KOLS 071154Z AUTO 04004KT 10SM CLR 21/14 A3006 RMK AO2 SLP102 T02060139 10272 20200 55001
KOLS 071054Z AUTO 07004KT 10SM CLR 21/14 A3006 RMK AO2 SLP102 T02060144
KOLS 070954Z AUTO 00000KT 10SM CLR 23/14 A3006 RMK AO2 SLP098 T02280139